Ash Grove, Missouri
Current Conditions -  °F | °C
As of 6:52 PM on Monday 20 Oct 2014 (Local Time) from KSGF Reporting Station
Clear Clear  
Wind Chill: 63°   Ceiling: Unl
Heat Index: 63°   Visibility: 10mi
Dew Point: 54°   Wind: 0mph
Humidity: 72%   Direction: NA
Pressure: 30.03"   Gusts: NA
Location:  37.32°N, 93.59°W
Report Text: KSGF 202352Z 00000KT 10SM CLR 17/12 A3003 RMK AO2 SLP162 T01720122 10233 20172 53004
Loading
Personal Weather Stations






























Interactive Weather Map
Tropical Storm Tracking
New forecast layout! Learn more

10-Day Weather Forecast

Advertisements
Track Severe Weather on mobile